sensor_id;sensor_type;location;lat;lon;timestamp;P1;durP1;ratioP1;P2;durP2;ratioP2
69161;SDS011;56269;51.738;21.652;2024-02-16T00:01:21;9.90;;;4.27;;
69161;SDS011;56269;51.738;21.652;2024-02-16T00:03:47;11.23;;;3.97;;
69161;SDS011;56269;51.738;21.652;2024-02-16T00:06:13;8.93;;;3.95;;
69161;SDS011;56269;51.738;21.652;2024-02-16T00:08:39;8.73;;;3.65;;
69161;SDS011;56269;51.738;21.652;2024-02-16T00:11:05;12.80;;;4.63;;
69161;SDS011;56269;51.738;21.652;2024-02-16T00:13:32;10.87;;;3.67;;
69161;SDS011;56269;51.738;21.652;2024-02-16T00:15:58;13.80;;;4.35;;
69161;SDS011;56269;51.738;21.652;2024-02-16T00:18:24;12.15;;;3.80;;
69161;SDS011;56269;51.738;21.652;2024-02-16T00:20:50;12.32;;;3.88;;
69161;SDS011;56269;51.738;21.652;2024-02-16T00:23:16;8.67;;;3.80;;
69161;SDS011;56269;51.738;21.652;2024-02-16T00:25:45;11.27;;;3.73;;
69161;SDS011;56269;51.738;21.652;2024-02-16T00:28:11;11.07;;;3.67;;
69161;SDS011;56269;51.738;21.652;2024-02-16T00:30:37;10.52;;;3.53;;
69161;SDS011;56269;51.738;21.652;2024-02-16T00:33:04;9.77;;;3.50;;
69161;SDS011;56269;51.738;21.652;2024-02-16T00:35:30;11.25;;;4.05;;
69161;SDS011;56269;51.738;21.652;2024-02-16T00:38:01;11.77;;;4.33;;
69161;SDS011;56269;51.738;21.652;2024-02-16T00:40:28;10.18;;;4.07;;
69161;SDS011;56269;51.738;21.652;2024-02-16T00:42:54;7.72;;;2.72;;
69161;SDS011;56269;51.738;21.652;2024-02-16T00:45:20;7.53;;;2.72;;
69161;SDS011;56269;51.738;21.652;2024-02-16T00:47:47;9.43;;;3.53;;
69161;SDS011;56269;51.738;21.652;2024-02-16T00:50:14;6.63;;;2.80;;
69161;SDS011;56269;51.738;21.652;2024-02-16T00:52:41;8.18;;;3.65;;
69161;SDS011;56269;51.738;21.652;2024-02-16T00:55:08;10.73;;;3.90;;
69161;SDS011;56269;51.738;21.652;2024-02-16T00:57:34;11.88;;;4.55;;
69161;SDS011;56269;51.738;21.652;2024-02-16T01:00:00;9.37;;;3.40;;
69161;SDS011;56269;51.738;21.652;2024-02-16T01:02:26;10.93;;;4.10;;
69161;SDS011;56269;51.738;21.652;2024-02-16T01:04:52;9.07;;;3.58;;
69161;SDS011;56269;51.738;21.652;2024-02-16T01:07:20;10.32;;;3.65;;
69161;SDS011;56269;51.738;21.652;2024-02-16T01:09:46;11.05;;;3.85;;
69161;SDS011;56269;51.738;21.652;2024-02-16T01:12:14;8.50;;;3.13;;
69161;SDS011;56269;51.738;21.652;2024-02-16T01:14:40;9.85;;;4.18;;
69161;SDS011;56269;51.738;21.652;2024-02-16T01:17:06;9.43;;;3.50;;
69161;SDS011;56269;51.738;21.652;2024-02-16T01:19:32;9.07;;;3.88;;
69161;SDS011;56269;51.738;21.652;2024-02-16T01:21:59;8.43;;;2.97;;
69161;SDS011;56269;51.738;21.652;2024-02-16T01:24:26;13.02;;;3.83;;
69161;SDS011;56269;51.738;21.652;2024-02-16T01:26:52;14.65;;;4.22;;
69161;SDS011;56269;51.738;21.652;2024-02-16T01:29:18;8.52;;;3.70;;
69161;SDS011;56269;51.738;21.652;2024-02-16T01:31:45;12.13;;;4.45;;
69161;SDS011;56269;51.738;21.652;2024-02-16T01:34:11;12.83;;;4.37;;
69161;SDS011;56269;51.738;21.652;2024-02-16T01:36:37;9.75;;;3.65;;
69161;SDS011;56269;51.738;21.652;2024-02-16T01:39:03;9.07;;;3.63;;
69161;SDS011;56269;51.738;21.652;2024-02-16T01:41:30;11.90;;;3.88;;
69161;SDS011;56269;51.738;21.652;2024-02-16T01:43:56;11.33;;;4.20;;
69161;SDS011;56269;51.738;21.652;2024-02-16T01:46:22;11.68;;;3.58;;
69161;SDS011;56269;51.738;21.652;2024-02-16T01:48:48;13.43;;;4.45;;
69161;SDS011;56269;51.738;21.652;2024-02-16T01:51:16;11.73;;;4.30;;
69161;SDS011;56269;51.738;21.652;2024-02-16T01:53:42;12.38;;;4.15;;
69161;SDS011;56269;51.738;21.652;2024-02-16T01:56:08;8.03;;;3.43;;
69161;SDS011;56269;51.738;21.652;2024-02-16T01:58:35;10.85;;;4.22;;
69161;SDS011;56269;51.738;21.652;2024-02-16T02:01:01;9.38;;;4.05;;
69161;SDS011;56269;51.738;21.652;2024-02-16T02:03:28;9.40;;;3.70;;
69161;SDS011;56269;51.738;21.652;2024-02-16T02:05:55;14.90;;;4.43;;
69161;SDS011;56269;51.738;21.652;2024-02-16T02:08:21;11.47;;;4.30;;
69161;SDS011;56269;51.738;21.652;2024-02-16T02:10:47;12.70;;;4.25;;
69161;SDS011;56269;51.738;21.652;2024-02-16T02:13:14;9.40;;;4.18;;
69161;SDS011;56269;51.738;21.652;2024-02-16T02:15:41;12.70;;;4.57;;
69161;SDS011;56269;51.738;21.652;2024-02-16T02:18:07;12.82;;;4.07;;
69161;SDS011;56269;51.738;21.652;2024-02-16T02:20:33;10.33;;;3.87;;
69161;SDS011;56269;51.738;21.652;2024-02-16T02:22:59;10.88;;;4.63;;
69161;SDS011;56269;51.738;21.652;2024-02-16T02:25:25;13.75;;;4.18;;
69161;SDS011;56269;51.738;21.652;2024-02-16T02:27:54;9.10;;;3.47;;
69161;SDS011;56269;51.738;21.652;2024-02-16T02:30:21;10.07;;;3.80;;
69161;SDS011;56269;51.738;21.652;2024-02-16T02:32:49;10.33;;;3.97;;
69161;SDS011;56269;51.738;21.652;2024-02-16T02:35:16;12.27;;;4.15;;
69161;SDS011;56269;51.738;21.652;2024-02-16T02:37:43;8.18;;;2.83;;
69161;SDS011;56269;51.738;21.652;2024-02-16T02:40:09;8.50;;;3.70;;
69161;SDS011;56269;51.738;21.652;2024-02-16T02:42:36;12.50;;;3.92;;
69161;SDS011;56269;51.738;21.652;2024-02-16T02:45:02;9.80;;;4.00;;
69161;SDS011;56269;51.738;21.652;2024-02-16T02:47:28;9.77;;;3.67;;
69161;SDS011;56269;51.738;21.652;2024-02-16T02:49:55;10.93;;;3.80;;
69161;SDS011;56269;51.738;21.652;2024-02-16T02:52:21;11.13;;;3.55;;
69161;SDS011;56269;51.738;21.652;2024-02-16T02:54:48;7.50;;;3.30;;
69161;SDS011;56269;51.738;21.652;2024-02-16T02:57:14;8.00;;;3.70;;
69161;SDS011;56269;51.738;21.652;2024-02-16T02:59:40;8.90;;;3.85;;
69161;SDS011;56269;51.738;21.652;2024-02-16T03:02:06;9.65;;;3.35;;
69161;SDS011;56269;51.738;21.652;2024-02-16T03:04:32;10.52;;;3.92;;
69161;SDS011;56269;51.738;21.652;2024-02-16T03:06:59;10.77;;;3.20;;
69161;SDS011;56269;51.738;21.652;2024-02-16T03:09:25;10.95;;;3.85;;
69161;SDS011;56269;51.738;21.652;2024-02-16T03:11:51;7.25;;;3.15;;
69161;SDS011;56269;51.738;21.652;2024-02-16T03:14:18;8.65;;;3.05;;
69161;SDS011;56269;51.738;21.652;2024-02-16T03:16:44;9.07;;;3.77;;
69161;SDS011;56269;51.738;21.652;2024-02-16T03:19:10;6.80;;;3.03;;
69161;SDS011;56269;51.738;21.652;2024-02-16T03:21:36;8.23;;;3.42;;
69161;SDS011;56269;51.738;21.652;2024-02-16T03:24:03;9.07;;;3.65;;
69161;SDS011;56269;51.738;21.652;2024-02-16T03:26:32;6.05;;;2.75;;
69161;SDS011;56269;51.738;21.652;2024-02-16T03:28:58;12.07;;;3.87;;
69161;SDS011;56269;51.738;21.652;2024-02-16T03:31:24;9.80;;;3.53;;
69161;SDS011;56269;51.738;21.652;2024-02-16T03:33:51;13.93;;;4.28;;
69161;SDS011;56269;51.738;21.652;2024-02-16T03:36:18;9.60;;;3.92;;
69161;SDS011;56269;51.738;21.652;2024-02-16T03:38:46;12.90;;;4.13;;
69161;SDS011;56269;51.738;21.652;2024-02-16T03:41:18;10.60;;;3.80;;
69161;SDS011;56269;51.738;21.652;2024-02-16T03:43:46;8.88;;;2.90;;
69161;SDS011;56269;51.738;21.652;2024-02-16T03:46:12;8.32;;;3.00;;
69161;SDS011;56269;51.738;21.652;2024-02-16T03:48:39;10.57;;;3.88;;
69161;SDS011;56269;51.738;21.652;2024-02-16T03:51:07;9.10;;;4.07;;
69161;SDS011;56269;51.738;21.652;2024-02-16T03:53:34;8.73;;;3.60;;
69161;SDS011;56269;51.738;21.652;2024-02-16T03:56:00;10.55;;;4.38;;
69161;SDS011;56269;51.738;21.652;2024-02-16T03:58:27;13.73;;;4.70;;
69161;SDS011;56269;51.738;21.652;2024-02-16T04:00:53;10.93;;;3.97;;
69161;SDS011;56269;51.738;21.652;2024-02-16T04:03:19;10.60;;;4.17;;
69161;SDS011;56269;51.738;21.652;2024-02-16T04:05:45;12.38;;;4.15;;
69161;SDS011;56269;51.738;21.652;2024-02-16T04:08:12;10.85;;;3.88;;
69161;SDS011;56269;51.738;21.652;2024-02-16T04:10:38;10.88;;;4.00;;
69161;SDS011;56269;51.738;21.652;2024-02-16T04:13:04;10.45;;;3.88;;
69161;SDS011;56269;51.738;21.652;2024-02-16T04:15:30;12.83;;;4.10;;
69161;SDS011;56269;51.738;21.652;2024-02-16T04:17:57;12.75;;;3.80;;
69161;SDS011;56269;51.738;21.652;2024-02-16T04:20:22;11.15;;;4.03;;
69161;SDS011;56269;51.738;21.652;2024-02-16T04:22:49;10.27;;;4.10;;
69161;SDS011;56269;51.738;21.652;2024-02-16T04:25:15;8.97;;;3.33;;
69161;SDS011;56269;51.738;21.652;2024-02-16T04:27:41;10.88;;;4.00;;
69161;SDS011;56269;51.738;21.652;2024-02-16T04:30:09;9.50;;;4.13;;
69161;SDS011;56269;51.738;21.652;2024-02-16T04:32:36;9.48;;;4.25;;
69161;SDS011;56269;51.738;21.652;2024-02-16T04:35:02;13.20;;;4.17;;
69161;SDS011;56269;51.738;21.652;2024-02-16T04:37:28;11.37;;;3.87;;
69161;SDS011;56269;51.738;21.652;2024-02-16T04:39:54;9.57;;;3.85;;
69161;SDS011;56269;51.738;21.652;2024-02-16T04:42:20;10.43;;;4.25;;
69161;SDS011;56269;51.738;21.652;2024-02-16T04:44:46;12.20;;;4.10;;
69161;SDS011;56269;51.738;21.652;2024-02-16T04:47:14;10.00;;;3.57;;
69161;SDS011;56269;51.738;21.652;2024-02-16T04:49:40;10.63;;;3.83;;
69161;SDS011;56269;51.738;21.652;2024-02-16T04:52:06;9.93;;;4.05;;
69161;SDS011;56269;51.738;21.652;2024-02-16T04:54:34;10.07;;;4.10;;
69161;SDS011;56269;51.738;21.652;2024-02-16T04:57:00;8.68;;;3.80;;
69161;SDS011;56269;51.738;21.652;2024-02-16T04:59:26;12.33;;;4.70;;
69161;SDS011;56269;51.738;21.652;2024-02-16T05:01:53;11.32;;;4.50;;
69161;SDS011;56269;51.738;21.652;2024-02-16T05:04:19;10.65;;;4.35;;
69161;SDS011;56269;51.738;21.652;2024-02-16T05:06:46;9.75;;;4.47;;
69161;SDS011;56269;51.738;21.652;2024-02-16T05:09:12;14.20;;;4.47;;
69161;SDS011;56269;51.738;21.652;2024-02-16T05:11:43;16.13;;;5.63;;
69161;SDS011;56269;51.738;21.652;2024-02-16T05:14:10;10.70;;;4.43;;
69161;SDS011;56269;51.738;21.652;2024-02-16T05:16:46;9.52;;;4.53;;
69161;SDS011;56269;51.738;21.652;2024-02-16T05:19:12;11.25;;;4.70;;
69161;SDS011;56269;51.738;21.652;2024-02-16T05:21:39;11.30;;;4.90;;
69161;SDS011;56269;51.738;21.652;2024-02-16T05:24:05;11.10;;;4.63;;
69161;SDS011;56269;51.738;21.652;2024-02-16T05:26:31;14.77;;;5.97;;
69161;SDS011;56269;51.738;21.652;2024-02-16T05:28:57;13.07;;;5.05;;
69161;SDS011;56269;51.738;21.652;2024-02-16T05:31:24;16.27;;;6.60;;
69161;SDS011;56269;51.738;21.652;2024-02-16T05:33:50;12.47;;;6.53;;
69161;SDS011;56269;51.738;21.652;2024-02-16T05:36:17;13.55;;;5.60;;
69161;SDS011;56269;51.738;21.652;2024-02-16T05:38:50;15.77;;;6.93;;
69161;SDS011;56269;51.738;21.652;2024-02-16T05:41:17;17.13;;;7.28;;
69161;SDS011;56269;51.738;21.652;2024-02-16T05:43:43;21.33;;;7.57;;
69161;SDS011;56269;51.738;21.652;2024-02-16T05:46:14;22.35;;;6.97;;
69161;SDS011;56269;51.738;21.652;2024-02-16T05:48:42;14.18;;;6.55;;
69161;SDS011;56269;51.738;21.652;2024-02-16T05:51:10;16.92;;;7.03;;
69161;SDS011;56269;51.738;21.652;2024-02-16T05:53:38;19.40;;;7.55;;
69161;SDS011;56269;51.738;21.652;2024-02-16T05:56:06;19.10;;;7.47;;
69161;SDS011;56269;51.738;21.652;2024-02-16T05:58:32;18.77;;;8.35;;
69161;SDS011;56269;51.738;21.652;2024-02-16T06:00:59;17.77;;;6.88;;
69161;SDS011;56269;51.738;21.652;2024-02-16T06:03:25;19.30;;;7.82;;
69161;SDS011;56269;51.738;21.652;2024-02-16T06:05:53;19.20;;;7.72;;
69161;SDS011;56269;51.738;21.652;2024-02-16T06:08:19;22.53;;;8.83;;
69161;SDS011;56269;51.738;21.652;2024-02-16T06:10:45;17.00;;;7.68;;
69161;SDS011;56269;51.738;21.652;2024-02-16T06:13:19;17.48;;;6.95;;
69161;SDS011;56269;51.738;21.652;2024-02-16T06:15:46;16.65;;;7.35;;
69161;SDS011;56269;51.738;21.652;2024-02-16T06:18:12;18.45;;;8.15;;
69161;SDS011;56269;51.738;21.652;2024-02-16T06:20:39;15.27;;;6.57;;
69161;SDS011;56269;51.738;21.652;2024-02-16T06:23:05;16.40;;;7.20;;
69161;SDS011;56269;51.738;21.652;2024-02-16T06:25:33;22.30;;;8.82;;
69161;SDS011;56269;51.738;21.652;2024-02-16T06:27:59;20.55;;;7.75;;
69161;SDS011;56269;51.738;21.652;2024-02-16T06:30:25;20.63;;;7.95;;
69161;SDS011;56269;51.738;21.652;2024-02-16T06:32:51;14.70;;;6.50;;
69161;SDS011;56269;51.738;21.652;2024-02-16T06:35:20;13.98;;;6.43;;
69161;SDS011;56269;51.738;21.652;2024-02-16T06:37:46;18.73;;;6.70;;
69161;SDS011;56269;51.738;21.652;2024-02-16T06:40:13;16.35;;;6.82;;
69161;SDS011;56269;51.738;21.652;2024-02-16T06:42:39;16.58;;;5.22;;
69161;SDS011;56269;51.738;21.652;2024-02-16T06:45:05;14.07;;;6.00;;
69161;SDS011;56269;51.738;21.652;2024-02-16T06:47:32;12.65;;;4.97;;
69161;SDS011;56269;51.738;21.652;2024-02-16T06:49:58;13.23;;;5.38;;
69161;SDS011;56269;51.738;21.652;2024-02-16T06:52:24;11.35;;;4.63;;
69161;SDS011;56269;51.738;21.652;2024-02-16T06:54:51;10.75;;;4.63;;
69161;SDS011;56269;51.738;21.652;2024-02-16T06:57:17;14.13;;;4.90;;
69161;SDS011;56269;51.738;21.652;2024-02-16T06:59:43;6.88;;;3.03;;
69161;SDS011;56269;51.738;21.652;2024-02-16T07:02:09;9.48;;;4.22;;
69161;SDS011;56269;51.738;21.652;2024-02-16T07:04:39;9.68;;;4.40;;
69161;SDS011;56269;51.738;21.652;2024-02-16T07:07:06;10.90;;;4.13;;
69161;SDS011;56269;51.738;21.652;2024-02-16T07:09:32;10.55;;;4.60;;
69161;SDS011;56269;51.738;21.652;2024-02-16T07:11:58;12.68;;;5.38;;
69161;SDS011;56269;51.738;21.652;2024-02-16T07:14:24;10.55;;;4.38;;
69161;SDS011;56269;51.738;21.652;2024-02-16T07:16:51;14.25;;;5.75;;
69161;SDS011;56269;51.738;21.652;2024-02-16T07:19:17;10.70;;;4.57;;
69161;SDS011;56269;51.738;21.652;2024-02-16T07:21:43;12.15;;;5.25;;
69161;SDS011;56269;51.738;21.652;2024-02-16T07:24:10;12.30;;;5.70;;
69161;SDS011;56269;51.738;21.652;2024-02-16T07:26:36;12.85;;;5.50;;
69161;SDS011;56269;51.738;21.652;2024-02-16T07:29:02;16.17;;;6.15;;
69161;SDS011;56269;51.738;21.652;2024-02-16T07:31:34;13.80;;;5.70;;
69161;SDS011;56269;51.738;21.652;2024-02-16T07:34:01;8.45;;;4.05;;
69161;SDS011;56269;51.738;21.652;2024-02-16T07:36:27;10.38;;;4.05;;
69161;SDS011;56269;51.738;21.652;2024-02-16T07:38:54;13.70;;;5.70;;
69161;SDS011;56269;51.738;21.652;2024-02-16T07:41:20;14.40;;;4.53;;
69161;SDS011;56269;51.738;21.652;2024-02-16T07:43:47;10.33;;;3.10;;
69161;SDS011;56269;51.738;21.652;2024-02-16T07:46:13;12.48;;;4.43;;
69161;SDS011;56269;51.738;21.652;2024-02-16T07:48:39;6.90;;;3.25;;
69161;SDS011;56269;51.738;21.652;2024-02-16T07:51:05;9.27;;;4.22;;
69161;SDS011;56269;51.738;21.652;2024-02-16T07:53:33;10.65;;;4.00;;
69161;SDS011;56269;51.738;21.652;2024-02-16T07:55:59;9.37;;;4.20;;
69161;SDS011;56269;51.738;21.652;2024-02-16T07:58:26;15.80;;;4.65;;
69161;SDS011;56269;51.738;21.652;2024-02-16T08:00:52;11.57;;;4.78;;
69161;SDS011;56269;51.738;21.652;2024-02-16T08:03:20;9.35;;;3.70;;
69161;SDS011;56269;51.738;21.652;2024-02-16T08:05:46;11.07;;;4.60;;
69161;SDS011;56269;51.738;21.652;2024-02-16T08:08:12;13.63;;;4.18;;
69161;SDS011;56269;51.738;21.652;2024-02-16T08:10:38;9.57;;;4.35;;
69161;SDS011;56269;51.738;21.652;2024-02-16T08:13:05;9.27;;;4.13;;
69161;SDS011;56269;51.738;21.652;2024-02-16T08:15:31;16.98;;;6.15;;
69161;SDS011;56269;51.738;21.652;2024-02-16T08:17:57;9.63;;;4.47;;
69161;SDS011;56269;51.738;21.652;2024-02-16T08:20:23;12.65;;;5.32;;
69161;SDS011;56269;51.738;21.652;2024-02-16T08:22:49;9.13;;;4.07;;
69161;SDS011;56269;51.738;21.652;2024-02-16T08:25:15;10.48;;;3.85;;
69161;SDS011;56269;51.738;21.652;2024-02-16T08:27:42;15.02;;;5.60;;
69161;SDS011;56269;51.738;21.652;2024-02-16T08:30:08;13.27;;;4.60;;
69161;SDS011;56269;51.738;21.652;2024-02-16T08:32:34;12.43;;;4.70;;
69161;SDS011;56269;51.738;21.652;2024-02-16T08:35:00;11.95;;;5.40;;
69161;SDS011;56269;51.738;21.652;2024-02-16T08:37:27;10.30;;;4.47;;
69161;SDS011;56269;51.738;21.652;2024-02-16T08:39:53;9.82;;;4.13;;
69161;SDS011;56269;51.738;21.652;2024-02-16T08:42:20;9.27;;;4.57;;
69161;SDS011;56269;51.738;21.652;2024-02-16T08:44:48;11.25;;;4.85;;
69161;SDS011;56269;51.738;21.652;2024-02-16T08:47:15;12.02;;;4.60;;
69161;SDS011;56269;51.738;21.652;2024-02-16T08:49:41;9.13;;;4.30;;
69161;SDS011;56269;51.738;21.652;2024-02-16T08:52:08;13.18;;;5.80;;
69161;SDS011;56269;51.738;21.652;2024-02-16T08:54:34;11.90;;;4.40;;
69161;SDS011;56269;51.738;21.652;2024-02-16T08:57:00;13.93;;;5.93;;
69161;SDS011;56269;51.738;21.652;2024-02-16T08:59:26;10.38;;;5.03;;
69161;SDS011;56269;51.738;21.652;2024-02-16T09:01:54;13.40;;;4.57;;
69161;SDS011;56269;51.738;21.652;2024-02-16T09:04:20;10.93;;;5.10;;
69161;SDS011;56269;51.738;21.652;2024-02-16T09:06:46;9.83;;;3.97;;
69161;SDS011;56269;51.738;21.652;2024-02-16T09:09:14;12.40;;;5.10;;
69161;SDS011;56269;51.738;21.652;2024-02-16T09:11:41;12.50;;;4.63;;
69161;SDS011;56269;51.738;21.652;2024-02-16T09:14:07;10.05;;;4.85;;
69161;SDS011;56269;51.738;21.652;2024-02-16T09:16:33;11.80;;;4.30;;
69161;SDS011;56269;51.738;21.652;2024-02-16T09:18:59;11.85;;;4.75;;
69161;SDS011;56269;51.738;21.652;2024-02-16T09:21:26;12.07;;;5.32;;
69161;SDS011;56269;51.738;21.652;2024-02-16T09:23:54;9.98;;;4.40;;
69161;SDS011;56269;51.738;21.652;2024-02-16T09:26:24;12.82;;;4.13;;
69161;SDS011;56269;51.738;21.652;2024-02-16T09:28:52;8.67;;;4.07;;
69161;SDS011;56269;51.738;21.652;2024-02-16T09:31:19;9.98;;;3.90;;
69161;SDS011;56269;51.738;21.652;2024-02-16T09:33:45;8.60;;;4.03;;
69161;SDS011;56269;51.738;21.652;2024-02-16T09:36:11;17.67;;;5.72;;
69161;SDS011;56269;51.738;21.652;2024-02-16T09:38:37;10.27;;;4.35;;
69161;SDS011;56269;51.738;21.652;2024-02-16T09:41:04;10.07;;;4.27;;
69161;SDS011;56269;51.738;21.652;2024-02-16T09:43:30;11.48;;;4.65;;
69161;SDS011;56269;51.738;21.652;2024-02-16T09:45:57;11.40;;;4.47;;
69161;SDS011;56269;51.738;21.652;2024-02-16T09:48:28;12.10;;;5.20;;
69161;SDS011;56269;51.738;21.652;2024-02-16T09:50:55;12.30;;;4.10;;
69161;SDS011;56269;51.738;21.652;2024-02-16T09:53:26;11.50;;;4.78;;
69161;SDS011;56269;51.738;21.652;2024-02-16T09:55:53;11.98;;;4.22;;
69161;SDS011;56269;51.738;21.652;2024-02-16T09:58:20;10.77;;;4.47;;
69161;SDS011;56269;51.738;21.652;2024-02-16T10:00:53;8.43;;;3.95;;
69161;SDS011;56269;51.738;21.652;2024-02-16T10:03:23;11.43;;;4.07;;
69161;SDS011;56269;51.738;21.652;2024-02-16T10:05:51;9.43;;;4.40;;
69161;SDS011;56269;51.738;21.652;2024-02-16T10:08:20;12.05;;;4.18;;
69161;SDS011;56269;51.738;21.652;2024-02-16T10:10:47;11.02;;;4.43;;
69161;SDS011;56269;51.738;21.652;2024-02-16T10:13:15;10.77;;;4.30;;
69161;SDS011;56269;51.738;21.652;2024-02-16T10:15:41;13.50;;;5.37;;
69161;SDS011;56269;51.738;21.652;2024-02-16T10:18:07;10.30;;;4.65;;
69161;SDS011;56269;51.738;21.652;2024-02-16T10:20:34;10.38;;;4.55;;
69161;SDS011;56269;51.738;21.652;2024-02-16T10:25:32;9.32;;;4.05;;
69161;SDS011;56269;51.738;21.652;2024-02-16T10:28:05;11.33;;;4.70;;
69161;SDS011;56269;51.738;21.652;2024-02-16T10:30:36;10.90;;;4.57;;
69161;SDS011;56269;51.738;21.652;2024-02-16T10:33:07;9.65;;;4.03;;
69161;SDS011;56269;51.738;21.652;2024-02-16T10:35:35;11.93;;;4.70;;
69161;SDS011;56269;51.738;21.652;2024-02-16T10:38:06;10.48;;;4.72;;
69161;SDS011;56269;51.738;21.652;2024-02-16T10:40:37;13.17;;;3.90;;
69161;SDS011;56269;51.738;21.652;2024-02-16T10:43:04;13.30;;;4.55;;
69161;SDS011;56269;51.738;21.652;2024-02-16T10:45:33;10.48;;;4.45;;
69161;SDS011;56269;51.738;21.652;2024-02-16T10:48:01;16.17;;;4.93;;
69161;SDS011;56269;51.738;21.652;2024-02-16T10:50:29;10.13;;;4.85;;
69161;SDS011;56269;51.738;21.652;2024-02-16T10:52:55;14.77;;;5.23;;
69161;SDS011;56269;51.738;21.652;2024-02-16T10:55:24;13.68;;;5.00;;
69161;SDS011;56269;51.738;21.652;2024-02-16T10:57:50;11.88;;;4.75;;
69161;SDS011;56269;51.738;21.652;2024-02-16T11:00:19;8.48;;;3.45;;
69161;SDS011;56269;51.738;21.652;2024-02-16T11:02:55;11.32;;;4.82;;
69161;SDS011;56269;51.738;21.652;2024-02-16T11:05:39;11.60;;;5.20;;
69161;SDS011;56269;51.738;21.652;2024-02-16T11:08:14;14.80;;;5.43;;
69161;SDS011;56269;51.738;21.652;2024-02-16T11:10:41;11.52;;;5.28;;
69161;SDS011;56269;51.738;21.652;2024-02-16T11:13:34;11.82;;;4.13;;
69161;SDS011;56269;51.738;21.652;2024-02-16T11:16:03;10.57;;;4.05;;
69161;SDS011;56269;51.738;21.652;2024-02-16T11:18:32;13.63;;;4.53;;
69161;SDS011;56269;51.738;21.652;2024-02-16T11:21:03;9.82;;;4.28;;
69161;SDS011;56269;51.738;21.652;2024-02-16T11:23:30;10.20;;;3.78;;
69161;SDS011;56269;51.738;21.652;2024-02-16T11:26:00;9.13;;;3.78;;
69161;SDS011;56269;51.738;21.652;2024-02-16T11:28:32;9.85;;;4.63;;
69161;SDS011;56269;51.738;21.652;2024-02-16T11:31:03;10.63;;;4.67;;
69161;SDS011;56269;51.738;21.652;2024-02-16T11:33:30;9.70;;;4.22;;
69161;SDS011;56269;51.738;21.652;2024-02-16T11:35:57;11.02;;;4.35;;
69161;SDS011;56269;51.738;21.652;2024-02-16T11:38:27;12.27;;;4.18;;
69161;SDS011;56269;51.738;21.652;2024-02-16T11:40:57;10.85;;;3.95;;
69161;SDS011;56269;51.738;21.652;2024-02-16T11:43:24;10.90;;;3.83;;
69161;SDS011;56269;51.738;21.652;2024-02-16T11:45:51;10.60;;;4.22;;
69161;SDS011;56269;51.738;21.652;2024-02-16T11:50:59;11.23;;;4.00;;
69161;SDS011;56269;51.738;21.652;2024-02-16T11:53:27;10.88;;;4.63;;
69161;SDS011;56269;51.738;21.652;2024-02-16T11:55:54;10.40;;;4.03;;
69161;SDS011;56269;51.738;21.652;2024-02-16T11:58:20;11.98;;;4.78;;
69161;SDS011;56269;51.738;21.652;2024-02-16T12:00:48;11.90;;;4.50;;
69161;SDS011;56269;51.738;21.652;2024-02-16T12:03:23;11.90;;;4.65;;
69161;SDS011;56269;51.738;21.652;2024-02-16T12:05:54;11.65;;;4.63;;
69161;SDS011;56269;51.738;21.652;2024-02-16T12:08:21;9.27;;;3.47;;
69161;SDS011;56269;51.738;21.652;2024-02-16T12:10:48;11.60;;;4.85;;
69161;SDS011;56269;51.738;21.652;2024-02-16T12:13:18;14.80;;;5.57;;
69161;SDS011;56269;51.738;21.652;2024-02-16T12:15:49;8.77;;;3.97;;
69161;SDS011;56269;51.738;21.652;2024-02-16T12:18:24;9.52;;;4.35;;
69161;SDS011;56269;51.738;21.652;2024-02-16T12:21:05;12.87;;;4.97;;
69161;SDS011;56269;51.738;21.652;2024-02-16T12:23:32;9.38;;;3.90;;
69161;SDS011;56269;51.738;21.652;2024-02-16T12:25:59;10.45;;;4.03;;
69161;SDS011;56269;51.738;21.652;2024-02-16T12:28:26;10.00;;;4.32;;
69161;SDS011;56269;51.738;21.652;2024-02-16T12:30:55;9.85;;;3.90;;
69161;SDS011;56269;51.738;21.652;2024-02-16T12:33:24;10.97;;;4.93;;
69161;SDS011;56269;51.738;21.652;2024-02-16T12:35:51;10.70;;;4.75;;
69161;SDS011;56269;51.738;21.652;2024-02-16T12:38:17;10.82;;;3.83;;
69161;SDS011;56269;51.738;21.652;2024-02-16T12:40:48;9.88;;;3.80;;
69161;SDS011;56269;51.738;21.652;2024-02-16T12:43:17;9.70;;;4.25;;
69161;SDS011;56269;51.738;21.652;2024-02-16T12:45:45;10.60;;;3.90;;
69161;SDS011;56269;51.738;21.652;2024-02-16T12:48:11;11.48;;;4.18;;
69161;SDS011;56269;51.738;21.652;2024-02-16T12:50:40;8.27;;;3.78;;
69161;SDS011;56269;51.738;21.652;2024-02-16T12:53:07;9.40;;;3.97;;
69161;SDS011;56269;51.738;21.652;2024-02-16T12:55:34;9.60;;;4.05;;
69161;SDS011;56269;51.738;21.652;2024-02-16T12:58:01;9.33;;;3.50;;
69161;SDS011;56269;51.738;21.652;2024-02-16T13:05:31;11.10;;;4.40;;
69161;SDS011;56269;51.738;21.652;2024-02-16T13:07:58;11.27;;;3.95;;
69161;SDS011;56269;51.738;21.652;2024-02-16T13:10:24;9.87;;;3.90;;
69161;SDS011;56269;51.738;21.652;2024-02-16T13:12:51;11.70;;;5.10;;
69161;SDS011;56269;51.738;21.652;2024-02-16T13:15:17;11.93;;;5.70;;
69161;SDS011;56269;51.738;21.652;2024-02-16T13:17:43;10.52;;;5.00;;
69161;SDS011;56269;51.738;21.652;2024-02-16T13:20:09;12.50;;;4.93;;
69161;SDS011;56269;51.738;21.652;2024-02-16T13:22:36;12.73;;;4.63;;
69161;SDS011;56269;51.738;21.652;2024-02-16T13:25:05;9.27;;;3.85;;
69161;SDS011;56269;51.738;21.652;2024-02-16T13:27:32;8.85;;;3.33;;
69161;SDS011;56269;51.738;21.652;2024-02-16T13:29:59;10.40;;;3.95;;
69161;SDS011;56269;51.738;21.652;2024-02-16T13:32:27;9.65;;;4.20;;
69161;SDS011;56269;51.738;21.652;2024-02-16T13:34:53;8.60;;;3.23;;
69161;SDS011;56269;51.738;21.652;2024-02-16T13:37:19;11.13;;;4.22;;
69161;SDS011;56269;51.738;21.652;2024-02-16T13:39:45;10.20;;;4.10;;
69161;SDS011;56269;51.738;21.652;2024-02-16T13:42:12;11.25;;;4.30;;
69161;SDS011;56269;51.738;21.652;2024-02-16T13:44:39;8.23;;;3.30;;
69161;SDS011;56269;51.738;21.652;2024-02-16T13:47:05;11.50;;;4.07;;
69161;SDS011;56269;51.738;21.652;2024-02-16T13:49:31;8.73;;;3.60;;
69161;SDS011;56269;51.738;21.652;2024-02-16T13:51:58;8.10;;;3.50;;
69161;SDS011;56269;51.738;21.652;2024-02-16T13:54:24;7.30;;;2.97;;
69161;SDS011;56269;51.738;21.652;2024-02-16T13:56:51;8.15;;;3.22;;
69161;SDS011;56269;51.738;21.652;2024-02-16T13:59:18;9.40;;;3.73;;
69161;SDS011;56269;51.738;21.652;2024-02-16T14:01:45;10.07;;;3.58;;
69161;SDS011;56269;51.738;21.652;2024-02-16T14:04:11;10.05;;;4.00;;
69161;SDS011;56269;51.738;21.652;2024-02-16T14:06:39;9.43;;;4.20;;
69161;SDS011;56269;51.738;21.652;2024-02-16T14:09:05;9.20;;;3.63;;
69161;SDS011;56269;51.738;21.652;2024-02-16T14:11:37;11.27;;;4.80;;
69161;SDS011;56269;51.738;21.652;2024-02-16T14:14:03;8.98;;;3.85;;
69161;SDS011;56269;51.738;21.652;2024-02-16T14:16:30;8.98;;;3.38;;
69161;SDS011;56269;51.738;21.652;2024-02-16T14:18:56;8.68;;;2.83;;
69161;SDS011;56269;51.738;21.652;2024-02-16T14:21:22;9.63;;;3.83;;
69161;SDS011;56269;51.738;21.652;2024-02-16T14:23:48;9.30;;;3.50;;
69161;SDS011;56269;51.738;21.652;2024-02-16T14:26:15;11.30;;;4.65;;
69161;SDS011;56269;51.738;21.652;2024-02-16T14:28:41;8.57;;;3.22;;
69161;SDS011;56269;51.738;21.652;2024-02-16T14:31:07;11.68;;;4.20;;
69161;SDS011;56269;51.738;21.652;2024-02-16T14:33:34;7.70;;;3.17;;
69161;SDS011;56269;51.738;21.652;2024-02-16T14:36:01;8.97;;;3.53;;